Time;durP1;ratioP1;P1;durP2;ratioP2;P2;SDS_P1;SDS_P2;PMS_P1;PMS_P2;Temp;Humidity;BMP_temperature;BMP_pressure;BME280_temperature;BME280_humidity;BME280_pressure;Samples;Min_cycle;Max_cycle;Signal;HPM_P1;HPM_P2
2023/08/08 00:01:00;;;;;;;8.97;3.87;;;13.80;99.90;;;;;;4978297;28;20462;-63
2023/08/08 00:03:27;;;;;;;5.33;3.73;;;13.70;99.90;;;;;;4977712;28;20501;-63
2023/08/08 00:05:54;;;;;;;6.00;3.70;;;13.70;99.90;;;;;;4978032;28;20468;-63
2023/08/08 00:08:21;;;;;;;5.67;4.00;;;13.60;99.90;;;;;;4978052;28;20497;-63
2023/08/08 00:10:48;;;;;;;5.50;4.10;;;13.50;99.90;;;;;;4978177;28;20719;-62
2023/08/08 00:13:17;;;;;;;4.27;3.87;;;13.40;1.00;;;;;;4978208;28;20458;-63
2023/08/08 00:15:44;;;;;;;5.93;4.10;;;13.50;1.00;;;;;;4980892;28;20740;-63
2023/08/08 00:18:12;;;;;;;4.53;3.80;;;13.40;1.00;;;;;;4981843;28;20497;-63
2023/08/08 00:20:39;;;;;;;5.70;4.13;;;13.30;1.00;;;;;;4977841;28;20440;-63
2023/08/08 00:23:06;;;;;;;5.93;4.00;;;13.30;1.00;;;;;;4963013;29;20560;-63
2023/08/08 00:25:33;;;;;;;6.10;4.40;;;13.30;1.00;;;;;;4961408;29;20522;-62
2023/08/08 00:28:00;;;;;;;4.50;3.53;;;13.20;1.00;;;;;;4962246;29;20494;-63
2023/08/08 00:30:29;;;;;;;4.37;3.53;;;13.20;1.00;;;;;;4962005;28;20463;-62
2023/08/08 00:32:56;;;;;;;4.10;3.70;;;13.10;1.00;;;;;;4962572;29;20463;-63
2023/08/08 00:35:24;;;;;;;6.97;4.27;;;13.10;1.00;;;;;;4962878;28;20455;-63
2023/08/08 00:37:51;;;;;;;10.83;4.13;;;13.00;1.00;;;;;;4979322;28;20758;-63
2023/08/08 00:40:18;;;;;;;20.27;4.93;;;13.10;1.00;;;;;;4981702;28;20473;-63
2023/08/08 00:42:45;;;;;;;5.03;4.10;;;13.00;1.00;;;;;;4981727;28;20497;-63
2023/08/08 00:45:12;;;;;;;6.43;3.80;;;13.00;1.00;;;;;;4981746;28;20534;-63
2023/08/08 00:47:41;;;;;;;6.43;4.63;;;13.00;1.00;;;;;;4981317;28;20504;-63
2023/08/08 00:50:11;;;;;;;5.93;3.93;;;13.00;1.00;;;;;;4981436;28;20457;-63
2023/08/08 00:52:39;;;;;;;7.67;4.10;;;13.00;1.00;;;;;;4981278;28;20492;-63
2023/08/08 00:55:08;;;;;;;7.03;4.20;;;12.90;1.00;;;;;;4980932;28;20458;-62
2023/08/08 00:57:38;;;;;;;7.90;4.10;;;12.90;1.00;;;;;;4980806;28;20519;-63
2023/08/08 01:00:09;;;;;;;5.30;3.40;;;12.90;1.00;;;;;;4981477;28;20899;-63
2023/08/08 01:02:36;;;;;;;7.93;4.23;;;12.90;1.00;;;;;;4981095;28;20477;-63
2023/08/08 01:05:06;;;;;;;5.13;4.13;;;12.80;1.00;;;;;;4981422;28;20466;-63
2023/08/08 01:07:42;;;;;;;6.60;3.63;;;12.80;1.00;;;;;;4980994;28;20539;-63
2023/08/08 01:10:13;;;;;;;6.00;4.13;;;12.80;1.00;;;;;;4980870;28;20440;-63
2023/08/08 01:12:43;;;;;;;4.33;3.70;;;12.80;1.00;;;;;;4981114;28;20462;-63
2023/08/08 01:15:11;;;;;;;6.47;4.13;;;12.80;1.00;;;;;;4981276;28;20756;-62
2023/08/08 01:17:39;;;;;;;8.17;4.20;;;12.90;1.00;;;;;;4964140;28;20437;-63
2023/08/08 01:20:10;;;;;;;10.50;4.07;;;13.00;99.90;;;;;;4974627;28;20440;-62
2023/08/08 01:22:40;;;;;;;6.10;4.23;;;13.10;99.90;;;;;;4971322;28;20471;-62
2023/08/08 01:25:10;;;;;;;5.27;3.83;;;13.20;99.90;;;;;;4966528;28;20557;-62
2023/08/08 01:27:38;;;;;;;5.90;4.30;;;13.20;99.90;;;;;;4976050;28;20479;-63
2023/08/08 01:30:07;;;;;;;5.83;4.30;;;13.20;99.90;;;;;;4960890;29;20501;-63
2023/08/08 01:32:34;;;;;;;7.10;4.77;;;13.30;99.90;;;;;;4961286;28;20561;-62
2023/08/08 01:35:02;;;;;;;6.73;4.13;;;13.30;99.90;;;;;;4961645;29;20494;-63
2023/08/08 01:37:33;;;;;;;6.40;4.50;;;13.30;99.90;;;;;;4960948;29;20884;-62
2023/08/08 01:40:02;;;;;;;6.87;4.47;;;13.30;99.90;;;;;;4961627;28;20462;-63
2023/08/08 01:42:32;;;;;;;7.53;4.03;;;13.30;99.90;;;;;;4961366;29;20467;-63
2023/08/08 01:44:59;;;;;;;5.90;4.43;;;13.30;99.90;;;;;;4961099;29;20730;-62
2023/08/08 01:47:27;;;;;;;5.63;4.40;;;13.30;99.90;;;;;;4960106;29;20477;-62
2023/08/08 01:49:54;;;;;;;7.50;4.53;;;13.30;99.90;;;;;;4961339;29;20459;-62
2023/08/08 01:52:22;;;;;;;5.60;4.90;;;13.30;99.90;;;;;;4960815;28;20490;-62
2023/08/08 01:54:49;;;;;;;7.17;4.33;;;13.30;99.90;;;;;;4960748;29;20919;-62
2023/08/08 01:57:17;;;;;;;5.23;4.27;;;13.30;99.90;;;;;;4960416;28;20509;-63
2023/08/08 01:59:46;;;;;;;5.50;4.23;;;13.30;99.90;;;;;;4960043;28;20466;-63
2023/08/08 02:02:15;;;;;;;6.40;4.27;;;13.30;99.90;;;;;;4973274;28;20462;-63
2023/08/08 02:04:42;;;;;;;8.20;4.30;;;13.30;99.90;;;;;;4980230;28;20561;-63
2023/08/08 02:07:09;;;;;;;4.40;3.80;;;13.30;99.90;;;;;;4980451;28;20759;-63
2023/08/08 02:09:36;;;;;;;4.83;4.17;;;13.30;99.90;;;;;;4979806;28;20493;-63
2023/08/08 02:12:04;;;;;;;8.70;4.10;;;13.30;99.90;;;;;;4979991;28;20466;-63
2023/08/08 02:14:31;;;;;;;4.70;3.87;;;13.30;99.90;;;;;;4980051;28;20466;-62
2023/08/08 02:17:00;;;;;;;5.10;3.53;;;13.20;99.90;;;;;;4979647;28;20457;-62
2023/08/08 02:19:27;;;;;;;6.50;4.10;;;13.20;99.90;;;;;;4979910;28;20883;-62
2023/08/08 02:21:54;;;;;;;4.67;3.40;;;13.20;99.90;;;;;;4979574;28;20489;-62
2023/08/08 02:24:21;;;;;;;10.73;4.80;;;13.20;99.90;;;;;;4980339;28;20468;-62
2023/08/08 02:26:48;;;;;;;6.77;4.13;;;13.20;99.90;;;;;;4979965;28;20461;-63
2023/08/08 02:29:16;;;;;;;6.80;4.10;;;13.20;99.90;;;;;;4979598;28;20486;-62
2023/08/08 02:31:43;;;;;;;5.50;3.80;;;13.20;99.90;;;;;;4979240;28;20884;-62
2023/08/08 02:34:11;;;;;;;6.03;4.00;;;13.20;99.90;;;;;;4979229;28;20468;-63
2023/08/08 02:36:38;;;;;;;5.43;3.90;;;13.30;99.90;;;;;;4971495;28;20652;-62
2023/08/08 02:39:06;;;;;;;7.40;4.37;;;13.20;99.90;;;;;;4959310;28;20834;-62
2023/08/08 02:41:33;;;;;;;5.90;4.27;;;13.20;99.90;;;;;;4959794;29;20463;-63
2023/08/08 02:44:00;;;;;;;5.77;4.17;;;13.20;94.80;;;;;;4959669;28;20469;-63
2023/08/08 02:46:27;;;;;;;5.73;3.77;;;13.20;99.90;;;;;;4959747;29;20470;-63
2023/08/08 02:48:54;;;;;;;8.03;5.43;;;13.10;99.90;;;;;;4959913;29;20497;-63
2023/08/08 02:51:23;;;;;;;7.30;4.20;;;13.10;99.90;;;;;;4959786;29;20811;-63
2023/08/08 02:53:50;;;;;;;4.60;3.83;;;13.10;99.90;;;;;;4960077;29;20859;-62
2023/08/08 02:56:17;;;;;;;5.07;3.90;;;13.10;99.90;;;;;;4959916;28;20549;-62
2023/08/08 02:58:44;;;;;;;7.47;3.90;;;13.10;99.90;;;;;;4960072;29;20459;-65
2023/08/08 03:01:13;;;;;;;5.47;4.47;;;13.20;99.90;;;;;;4959829;29;20458;-65
2023/08/08 03:03:40;;;;;;;6.60;4.30;;;13.10;99.90;;;;;;4958576;28;20509;-63
2023/08/08 03:06:07;;;;;;;5.87;4.40;;;13.20;99.90;;;;;;4959784;29;20469;-63
2023/08/08 03:08:36;;;;;;;6.40;4.30;;;13.20;99.90;;;;;;4959535;29;20506;-63
2023/08/08 03:11:03;;;;;;;5.20;4.70;;;13.20;99.90;;;;;;4959604;29;20742;-63
2023/08/08 03:13:30;;;;;;;6.77;3.97;;;13.10;99.90;;;;;;4959268;29;20467;-62
2023/08/08 03:15:57;;;;;;;6.27;3.77;;;13.10;99.90;;;;;;4959651;29;20467;-63
2023/08/08 03:18:25;;;;;;;5.07;3.90;;;13.10;99.90;;;;;;4959395;28;20510;-62
2023/08/08 03:20:53;;;;;;;5.87;3.90;;;13.10;99.90;;;;;;4959842;29;20467;-62
2023/08/08 03:23:20;;;;;;;9.87;4.23;;;13.10;99.90;;;;;;4959375;29;20466;-62
2023/08/08 03:25:49;;;;;;;7.20;4.30;;;13.10;99.90;;;;;;4958075;28;20473;-63
2023/08/08 03:28:16;;;;;;;5.93;4.90;;;13.10;99.90;;;;;;4957901;29;20494;-62
2023/08/08 03:30:43;;;;;;;8.00;4.33;;;13.10;99.90;;;;;;4958531;29;20473;-62
2023/08/08 03:33:10;;;;;;;6.80;4.20;;;13.10;99.90;;;;;;4957876;28;20467;-62
2023/08/08 03:35:37;;;;;;;7.07;4.20;;;13.10;99.90;;;;;;4957889;29;20459;-63
2023/08/08 03:38:05;;;;;;;5.23;3.90;;;13.10;99.90;;;;;;4977163;28;20453;-61
2023/08/08 03:40:32;;;;;;;5.57;4.33;;;13.10;99.90;;;;;;4978405;28;20462;-63
2023/08/08 03:43:01;;;;;;;6.53;4.70;;;13.10;99.90;;;;;;4978779;28;20485;-63
2023/08/08 03:45:28;;;;;;;8.23;4.57;;;13.20;99.90;;;;;;4978477;28;20488;-62
2023/08/08 03:47:55;;;;;;;6.40;4.90;;;13.10;1.00;;;;;;4978110;28;20789;-62
2023/08/08 03:50:22;;;;;;;7.87;4.47;;;13.00;1.00;;;;;;4978142;28;20521;-63
2023/08/08 03:52:49;;;;;;;8.57;5.10;;;13.10;1.00;;;;;;4977997;28;20489;-62
2023/08/08 03:55:17;;;;;;;10.23;4.70;;;13.00;1.00;;;;;;4978474;28;20796;-62
2023/08/08 03:57:44;;;;;;;8.20;4.93;;;13.10;1.00;;;;;;4977951;28;20466;-63
2023/08/08 04:00:13;;;;;;;8.67;4.90;;;13.10;1.00;;;;;;4977683;28;20458;-62
2023/08/08 04:02:40;;;;;;;7.83;4.43;;;13.10;1.00;;;;;;4978508;28;20473;-63
2023/08/08 04:05:08;;;;;;;7.13;4.67;;;13.10;1.00;;;;;;4978099;28;20472;-63
2023/08/08 04:07:35;;;;;;;6.10;4.23;;;13.10;1.00;;;;;;4977935;28;20444;-62
2023/08/08 04:10:03;;;;;;;5.27;4.30;;;13.00;1.00;;;;;;4978260;28;20494;-63
2023/08/08 04:12:32;;;;;;;7.13;4.70;;;13.10;12.40;;;;;;4978318;28;20556;-62
2023/08/08 04:14:59;;;;;;;8.87;4.53;;;13.00;1.00;;;;;;4978273;28;20466;-63
2023/08/08 04:17:28;;;;;;;6.73;5.10;;;13.00;57.70;;;;;;4977622;28;20462;-62
2023/08/08 04:19:55;;;;;;;8.43;5.13;;;13.00;1.00;;;;;;4977667;28;20557;-63
2023/08/08 04:22:22;;;;;;;13.30;5.57;;;12.90;99.90;;;;;;4977934;28;20979;-64
2023/08/08 04:24:49;;;;;;;6.60;4.73;;;13.00;29.90;;;;;;4977613;28;20472;-63
2023/08/08 04:27:16;;;;;;;10.57;5.83;;;12.90;99.90;;;;;;4977317;28;20487;-62
2023/08/08 04:29:44;;;;;;;7.40;5.40;;;12.90;99.90;;;;;;4977377;28;20498;-62
2023/08/08 04:32:11;;;;;;;7.00;5.10;;;12.90;99.90;;;;;;4970947;28;20528;-62
2023/08/08 04:34:39;;;;;;;8.27;5.80;;;12.90;99.90;;;;;;4957032;28;20441;-62
2023/08/08 04:37:06;;;;;;;8.47;5.67;;;12.90;99.90;;;;;;4968466;28;20457;-62
2023/08/08 04:39:34;;;;;;;9.37;5.90;;;12.90;99.90;;;;;;4977555;28;20938;-63
2023/08/08 04:42:01;;;;;;;9.33;6.80;;;13.00;1.00;;;;;;4976312;28;20762;-62
2023/08/08 04:44:28;;;;;;;12.60;6.33;;;13.00;99.90;;;;;;4976357;28;20466;-62
2023/08/08 04:46:55;;;;;;;9.63;6.83;;;13.10;1.00;;;;;;4976204;28;20791;-64
2023/08/08 04:49:22;;;;;;;9.83;8.03;;;13.00;1.00;;;;;;4976998;28;21026;-62
2023/08/08 04:51:51;;;;;;;10.10;8.30;;;13.00;1.00;;;;;;4976596;28;20585;-62
2023/08/08 04:54:18;;;;;;;11.13;7.73;;;13.00;1.00;;;;;;4975966;28;20461;-62
2023/08/08 04:56:45;;;;;;;15.80;8.50;;;13.00;1.00;;;;;;4976495;28;20461;-62
2023/08/08 04:59:12;;;;;;;17.07;10.00;;;13.00;1.00;;;;;;4976512;28;20459;-63
2023/08/08 05:01:39;;;;;;;13.90;8.60;;;13.00;25.70;;;;;;4978070;28;20472;-62
2023/08/08 05:04:06;;;;;;;14.53;9.30;;;13.00;99.60;;;;;;4979227;28;20437;-62
2023/08/08 05:06:34;;;;;;;15.03;9.63;;;13.00;99.90;;;;;;4980003;28;20470;-62
2023/08/08 05:09:03;;;;;;;15.30;9.40;;;13.10;99.90;;;;;;4979744;28;20978;-61
2023/08/08 05:11:30;;;;;;;15.17;10.00;;;13.10;99.90;;;;;;4977010;28;20466;-64
2023/08/08 05:13:57;;;;;;;25.53;11.77;;;13.10;99.90;;;;;;4959209;29;20463;-61
2023/08/08 05:16:25;;;;;;;16.30;11.33;;;13.10;99.90;;;;;;4958201;28;20498;-62
2023/08/08 05:18:54;;;;;;;16.10;9.93;;;13.10;1.00;;;;;;4959729;28;20467;-59
2023/08/08 05:21:26;;;;;;;15.40;10.83;;;13.10;1.00;;;;;;4970931;28;20800;-62
2023/08/08 05:23:53;;;;;;;13.80;11.37;;;13.10;1.00;;;;;;4978359;28;20505;-63
2023/08/08 05:26:22;;;;;;;21.43;14.00;;;13.20;1.60;;;;;;4979712;28;20461;-63
2023/08/08 05:28:49;;;;;;;17.33;11.20;;;13.20;1.00;;;;;;4979051;28;20963;-63
2023/08/08 05:31:16;;;;;;;15.23;12.70;;;13.20;1.00;;;;;;4980291;28;20454;-63
2023/08/08 05:33:44;;;;;;;16.30;12.07;;;13.20;1.00;;;;;;4980850;28;20444;-65
2023/08/08 05:36:11;;;;;;;12.13;10.83;;;13.20;1.00;;;;;;4981302;28;20441;-65
2023/08/08 05:38:38;;;;;;;13.33;11.90;;;13.20;1.00;;;;;;4980579;28;20842;-65
2023/08/08 05:41:06;;;;;;;16.27;12.67;;;13.30;13.80;;;;;;4981104;28;20795;-65
2023/08/08 05:43:35;;;;;;;17.67;11.90;;;13.20;1.00;;;;;;4980246;28;20556;-65
2023/08/08 05:46:02;;;;;;;12.83;11.53;;;13.20;1.00;;;;;;4980722;28;20466;-64
2023/08/08 05:48:29;;;;;;;14.17;10.07;;;13.20;99.90;;;;;;4980292;28;20477;-65
2023/08/08 05:50:58;;;;;;;14.13;10.87;;;13.20;99.90;;;;;;4980360;28;20564;-64
2023/08/08 05:53:25;;;;;;;14.97;11.10;;;13.20;6.80;;;;;;4980455;28;20887;-64
2023/08/08 05:55:52;;;;;;;16.00;10.30;;;13.30;1.00;;;;;;4980359;28;20536;-64
2023/08/08 05:58:20;;;;;;;11.60;10.50;;;13.20;99.90;;;;;;4980729;28;20572;-64
2023/08/08 06:00:48;;;;;;;16.27;12.63;;;13.30;1.00;;;;;;4980288;28;20465;-65
2023/08/08 06:03:16;;;;;;;16.33;11.70;;;13.30;99.90;;;;;;4980175;28;20473;-65
2023/08/08 06:05:43;;;;;;;14.63;12.10;;;13.30;99.90;;;;;;4980519;28;20534;-63
2023/08/08 06:08:12;;;;;;;20.50;13.10;;;13.30;1.00;;;;;;4980795;28;20561;-65
2023/08/08 06:10:39;;;;;;;18.50;13.63;;;13.30;99.90;;;;;;4979926;28;20497;-65
2023/08/08 06:13:06;;;;;;;23.67;14.17;;;13.40;99.90;;;;;;4978681;28;20899;-65
2023/08/08 06:15:34;;;;;;;15.70;12.03;;;13.40;99.90;;;;;;4979651;28;20552;-65
2023/08/08 06:18:02;;;;;;;14.90;12.20;;;13.50;1.00;;;;;;4980062;28;20489;-65
2023/08/08 06:20:29;;;;;;;14.10;12.20;;;13.50;1.00;;;;;;4980385;28;20883;-65
2023/08/08 06:22:57;;;;;;;16.57;11.77;;;13.50;99.90;;;;;;4980119;28;20472;-65
2023/08/08 06:25:24;;;;;;;15.73;12.20;;;13.50;99.90;;;;;;4980286;28;20552;-65
2023/08/08 06:27:51;;;;;;;14.93;12.77;;;13.50;99.90;;;;;;4980589;28;20476;-65
2023/08/08 06:30:18;;;;;;;16.67;12.73;;;13.50;99.90;;;;;;4979606;28;20497;-65
2023/08/08 06:32:46;;;;;;;17.70;13.13;;;13.50;99.90;;;;;;4979690;28;20560;-65
2023/08/08 06:35:16;;;;;;;14.00;11.60;;;13.50;99.90;;;;;;4979954;28;20707;-64
2023/08/08 06:37:43;;;;;;;18.20;12.00;;;13.60;99.90;;;;;;4963240;28;20481;-65
2023/08/08 06:40:12;;;;;;;13.27;11.70;;;13.60;1.00;;;;;;4960422;29;20458;-66
2023/08/08 06:42:39;;;;;;;19.60;12.10;;;13.60;99.90;;;;;;4960546;28;20975;-65
2023/08/08 06:45:09;;;;;;;17.50;12.07;;;13.60;99.90;;;;;;4960224;29;20501;-66
2023/08/08 06:47:37;;;;;;;14.57;11.53;;;13.60;99.90;;;;;;4960511;28;20767;-65
2023/08/08 06:50:05;;;;;;;15.30;11.80;;;13.60;99.90;;;;;;4960153;28;20491;-65
2023/08/08 06:52:33;;;;;;;16.17;11.47;;;13.70;99.90;;;;;;4959835;29;20489;-65
2023/08/08 06:55:01;;;;;;;17.83;11.80;;;13.80;15.10;;;;;;4959674;29;20473;-65
2023/08/08 06:57:28;;;;;;;13.10;11.80;;;13.80;1.00;;;;;;4962795;28;20466;-65
2023/08/08 06:59:55;;;;;;;15.40;11.63;;;13.80;1.00;;;;;;4978549;28;20458;-64
2023/08/08 07:02:22;;;;;;;16.60;11.53;;;13.80;99.90;;;;;;4977748;28;20560;-67
2023/08/08 07:04:50;;;;;;;12.73;10.50;;;13.80;99.90;;;;;;4978926;28;20896;-65
2023/08/08 07:07:17;;;;;;;13.30;10.63;;;13.80;99.90;;;;;;4978994;28;20469;-65
2023/08/08 07:09:45;;;;;;;14.83;11.47;;;13.80;99.90;;;;;;4979405;28;20498;-64
2023/08/08 07:12:13;;;;;;;12.70;11.40;;;13.80;99.90;;;;;;4979217;28;20544;-65
2023/08/08 07:14:40;;;;;;;21.93;10.57;;;13.90;99.90;;;;;;4973943;28;20550;-65
2023/08/08 07:17:07;;;;;;;12.50;10.57;;;13.80;99.90;;;;;;4957694;29;20533;-64
2023/08/08 07:19:34;;;;;;;12.13;10.40;;;13.80;99.90;;;;;;4958925;29;20467;-64
2023/08/08 07:22:02;;;;;;;12.77;9.43;;;13.90;1.00;;;;;;4959724;29;20569;-65
2023/08/08 07:24:30;;;;;;;15.07;8.97;;;13.90;99.90;;;;;;4961013;28;20873;-65
2023/08/08 07:27:00;;;;;;;15.00;9.80;;;14.00;99.90;;;;;;4976344;28;20549;-64
2023/08/08 07:29:27;;;;;;;12.50;9.53;;;13.90;99.90;;;;;;4977110;28;20585;-65
2023/08/08 07:31:55;;;;;;;16.73;10.37;;;13.90;99.90;;;;;;4975527;28;20756;-64
2023/08/08 07:34:22;;;;;;;16.50;10.63;;;13.90;99.90;;;;;;4976938;28;20516;-64
2023/08/08 07:36:50;;;;;;;16.57;9.33;;;14.10;84.60;;;;;;4966209;28;20565;-65
2023/08/08 07:39:17;;;;;;;14.43;10.10;;;14.20;1.00;;;;;;4956935;28;20469;-66
2023/08/08 07:41:44;;;;;;;12.87;9.10;;;14.40;99.90;;;;;;4956548;29;20996;-65
2023/08/08 07:44:13;;;;;;;10.10;8.43;;;14.70;99.90;;;;;;4956044;28;20470;-64
2023/08/08 07:46:40;;;;;;;9.63;8.47;;;14.90;30.80;;;;;;4956804;28;20441;-64
2023/08/08 07:49:09;;;;;;;10.37;8.77;;;15.00;1.00;;;;;;4955544;28;20497;-59
2023/08/08 07:51:36;;;;;;;13.17;8.50;;;14.80;99.90;;;;;;4954438;28;20494;-59
2023/08/08 07:54:05;;;;;;;11.10;8.33;;;14.90;1.00;;;;;;4965274;28;20477;-59
2023/08/08 07:56:32;;;;;;;16.60;8.00;;;15.00;99.90;;;;;;4973624;28;20798;-58
2023/08/08 07:59:01;;;;;;;14.17;8.67;;;15.00;99.90;;;;;;4974524;28;20496;-59
2023/08/08 08:01:30;;;;;;;10.67;7.73;;;15.20;99.90;;;;;;4975035;28;20520;-61
2023/08/08 08:03:57;;;;;;;13.60;8.00;;;15.40;99.90;;;;;;4977285;28;20789;-59
2023/08/08 08:06:25;;;;;;;11.87;7.60;;;15.20;99.90;;;;;;4977309;28;20732;-58
2023/08/08 08:08:52;;;;;;;11.87;7.60;;;15.40;99.90;;;;;;4977817;28;20552;-58
2023/08/08 08:11:19;;;;;;;9.70;7.27;;;15.40;99.90;;;;;;4978456;28;20468;-58
2023/08/08 08:13:48;;;;;;;12.23;7.50;;;15.50;99.90;;;;;;4967989;28;20790;-58
2023/08/08 08:16:15;;;;;;;13.50;8.30;;;15.40;99.90;;;;;;4958969;29;20522;-57
2023/08/08 08:18:44;;;;;;;11.90;7.57;;;15.30;99.90;;;;;;4958694;28;20517;-58
2023/08/08 08:21:12;;;;;;;9.23;7.17;;;15.40;99.90;;;;;;4958288;29;20904;-59
2023/08/08 08:23:40;;;;;;;10.70;6.37;;;15.50;99.90;;;;;;4958878;29;20466;-58
2023/08/08 08:26:08;;;;;;;11.93;7.03;;;15.80;68.70;;;;;;4958345;28;20926;-59
2023/08/08 08:28:35;;;;;;;10.43;8.53;;;15.60;2.00;;;;;;4958395;29;20765;-59
2023/08/08 08:31:05;;;;;;;12.33;7.57;;;15.50;14.40;;;;;;4970885;28;20596;-59
2023/08/08 08:33:33;;;;;;;13.63;6.70;;;15.60;62.50;;;;;;4977807;28;20469;-58
2023/08/08 08:36:01;;;;;;;10.00;6.07;;;15.60;30.00;;;;;;4975585;28;20574;-59
2023/08/08 08:38:29;;;;;;;7.90;7.10;;;15.70;55.80;;;;;;4962210;29;20557;-59
2023/08/08 08:40:58;;;;;;;13.20;7.30;;;15.60;18.50;;;;;;4962587;28;20454;-59
2023/08/08 08:43:25;;;;;;;9.23;6.77;;;15.30;99.90;;;;;;4962762;28;20497;-58
2023/08/08 08:45:54;;;;;;;10.00;6.53;;;15.30;99.90;;;;;;4962780;29;20466;-58
2023/08/08 08:48:23;;;;;;;13.20;6.70;;;15.30;99.90;;;;;;4962338;29;20462;-58
2023/08/08 08:50:50;;;;;;;10.70;6.10;;;15.40;99.90;;;;;;4962431;29;20525;-58
2023/08/08 08:53:22;;;;;;;8.93;6.70;;;15.60;99.90;;;;;;4924126;29;20898;-58
2023/08/08 08:55:51;;;;;;;7.33;6.20;;;15.60;99.90;;;;;;4924268;29;20770;-58
2023/08/08 08:58:20;;;;;;;8.33;6.10;;;16.10;33.70;;;;;;4924232;29;20488;-62
2023/08/08 09:00:48;;;;;;;12.60;5.87;;;16.70;1.00;;;;;;4924000;29;20509;-59
2023/08/08 09:03:16;;;;;;;13.60;5.07;;;16.80;1.00;;;;;;4923590;29;20464;-58
2023/08/08 09:05:44;;;;;;;10.90;6.37;;;16.60;1.00;;;;;;4924220;29;20465;-59
2023/08/08 09:08:15;;;;;;;10.73;5.47;;;16.40;1.00;;;;;;4923392;29;20541;-61
2023/08/08 09:10:43;;;;;;;9.10;5.70;;;16.10;1.00;;;;;;4923552;29;20595;-58
2023/08/08 09:13:14;;;;;;;6.37;4.97;;;16.20;1.00;;;;;;4923636;29;20468;-58
2023/08/08 09:15:41;;;;;;;9.63;5.80;;;16.50;1.00;;;;;;4923755;29;20468;-58
2023/08/08 09:18:09;;;;;;;9.80;5.27;;;16.60;1.00;;;;;;4923620;29;20555;-59
2023/08/08 09:20:38;;;;;;;9.57;5.23;;;16.80;1.00;;;;;;4923218;29;20555;-61
2023/08/08 09:23:06;;;;;;;6.70;4.80;;;17.30;1.00;;;;;;4923310;29;20475;-58
2023/08/08 09:25:33;;;;;;;14.73;6.23;;;17.40;1.00;;;;;;4923422;29;20835;-60
2023/08/08 09:28:03;;;;;;;9.70;4.60;;;17.70;1.00;;;;;;4931783;29;20479;-59
2023/08/08 09:30:31;;;;;;;7.50;4.90;;;17.50;1.00;;;;;;4942114;29;20505;-60
2023/08/08 09:33:00;;;;;;;7.40;4.77;;;17.40;1.00;;;;;;4941549;29;20442;-59
2023/08/08 09:35:29;;;;;;;9.77;5.77;;;17.30;1.00;;;;;;4937371;29;20484;-59
2023/08/08 09:37:56;;;;;;;6.57;4.80;;;17.30;1.00;;;;;;4931919;29;20551;-59
2023/08/08 09:40:24;;;;;;;9.77;4.73;;;17.40;1.00;;;;;;4921657;29;20491;-61
2023/08/08 09:42:53;;;;;;;8.07;5.07;;;17.30;1.00;;;;;;4921714;29;20465;-60
2023/08/08 09:45:22;;;;;;;9.07;5.40;;;17.20;1.00;;;;;;4922151;29;20464;-61
2023/08/08 09:47:52;;;;;;;8.37;4.90;;;17.20;1.00;;;;;;4921580;29;20562;-59
2023/08/08 09:50:19;;;;;;;8.57;4.83;;;17.30;1.00;;;;;;4926756;29;20499;-60
2023/08/08 09:52:47;;;;;;;7.53;4.80;;;17.40;1.00;;;;;;4963330;28;20581;-58
2023/08/08 09:55:18;;;;;;;10.10;4.87;;;18.10;1.00;;;;;;4960717;29;20458;-60
2023/08/08 09:57:47;;;;;;;15.33;5.33;;;18.50;1.00;;;;;;4960692;29;20494;-59
2023/08/08 10:00:16;;;;;;;9.20;5.23;;;18.70;1.00;;;;;;4959501;29;20465;-59
2023/08/08 10:02:46;;;;;;;5.13;4.63;;;18.60;1.00;;;;;;4959412;29;20475;-59
2023/08/08 10:05:15;;;;;;;8.30;4.57;;;18.60;1.00;;;;;;4957734;29;20481;-60
2023/08/08 10:07:43;;;;;;;7.43;4.63;;;18.90;1.00;;;;;;4958957;29;20526;-60
2023/08/08 10:10:11;;;;;;;8.63;4.90;;;19.50;1.00;;;;;;4959391;28;20466;-62
2023/08/08 10:12:39;;;;;;;10.10;4.60;;;20.10;1.00;;;;;;4958922;28;20571;-63
2023/08/08 10:15:09;;;;;;;6.80;4.57;;;20.30;99.90;;;;;;4960250;29;20437;-63
2023/08/08 10:17:38;;;;;;;10.13;5.37;;;20.20;99.90;;;;;;4960868;28;20899;-62
2023/08/08 10:20:11;;;;;;;6.50;4.20;;;20.00;99.90;;;;;;4960112;29;20473;-62
2023/08/08 10:22:42;;;;;;;7.53;4.30;;;19.90;99.90;;;;;;4959232;28;20471;-62
2023/08/08 10:25:10;;;;;;;8.07;4.63;;;19.70;99.90;;;;;;4960123;29;20529;-60
2023/08/08 10:27:39;;;;;;;8.03;4.50;;;19.40;99.90;;;;;;4960609;29;20466;-61
2023/08/08 10:30:10;;;;;;;10.03;5.10;;;19.40;99.90;;;;;;4960675;29;20467;-66
2023/08/08 10:32:42;;;;;;;6.63;4.60;;;19.20;99.90;;;;;;4967993;28;20524;-62
2023/08/08 10:35:12;;;;;;;6.40;4.90;;;18.80;99.90;;;;;;4979771;28;20461;-64
2023/08/08 10:37:54;;;;;;;6.80;4.60;;;18.50;99.90;;;;;;4979235;28;20468;-59
2023/08/08 10:40:21;;;;;;;7.40;4.87;;;18.20;99.90;;;;;;4978501;28;20490;-61
2023/08/08 10:42:48;;;;;;;11.13;5.30;;;18.00;99.90;;;;;;4960123;28;20490;-62
2023/08/08 10:45:17;;;;;;;7.67;4.50;;;17.60;1.00;;;;;;4960016;29;20459;-61
2023/08/08 10:47:45;;;;;;;9.37;5.47;;;17.50;1.00;;;;;;4960001;29;20962;-64
2023/08/08 10:50:15;;;;;;;8.97;4.67;;;17.50;1.00;;;;;;4960205;29;20470;-60
2023/08/08 10:52:55;;;;;;;9.43;4.50;;;17.50;1.00;;;;;;4959609;28;20807;-60
2023/08/08 10:55:24;;;;;;;9.53;5.37;;;17.60;1.00;;;;;;4975753;28;20472;-61
2023/08/08 10:57:59;;;;;;;10.30;4.43;;;17.50;1.00;;;;;;4979509;28;20465;-61
2023/08/08 11:00:29;;;;;;;8.90;5.33;;;17.80;1.00;;;;;;4978451;28;20457;-65
2023/08/08 11:02:56;;;;;;;8.40;5.17;;;17.80;1.00;;;;;;4976436;28;20458;-61
2023/08/08 11:05:26;;;;;;;5.70;4.43;;;17.60;99.90;;;;;;4978642;28;20761;-61
2023/08/08 11:07:54;;;;;;;7.90;5.00;;;17.50;1.00;;;;;;4964774;28;20471;-62
2023/08/08 11:10:22;;;;;;;6.83;5.13;;;17.60;1.00;;;;;;4958516;29;20909;-63
2023/08/08 11:12:57;;;;;;;10.30;4.50;;;17.60;1.00;;;;;;4958859;29;20758;-63
2023/08/08 11:15:24;;;;;;;8.00;5.20;;;17.40;1.00;;;;;;4968461;28;20462;-63
2023/08/08 11:17:52;;;;;;;7.83;5.10;;;17.60;1.00;;;;;;4967163;28;20474;-67
2023/08/08 11:20:19;;;;;;;6.80;5.23;;;17.90;1.00;;;;;;4973443;28;20477;-61
2023/08/08 11:22:53;;;;;;;9.17;5.80;;;18.00;1.00;;;;;;4975739;28;20509;-62
2023/08/08 11:25:21;;;;;;;6.87;5.10;;;17.90;1.00;;;;;;4975878;28;20476;-62
2023/08/08 11:27:52;;;;;;;10.70;5.30;;;17.60;1.00;;;;;;4962345;28;20624;-61
2023/08/08 11:30:20;;;;;;;6.73;5.47;;;17.50;1.00;;;;;;4957920;28;20496;-60
2023/08/08 11:32:48;;;;;;;9.47;5.43;;;16.90;1.00;;;;;;4955663;28;20471;-60
2023/08/08 11:35:19;;;;;;;9.53;5.90;;;16.90;1.00;;;;;;4956076;28;21124;-60
2023/08/08 11:37:48;;;;;;;7.53;6.83;;;16.80;1.00;;;;;;4959566;28;20561;-62
2023/08/08 11:40:15;;;;;;;11.93;6.73;;;16.80;1.00;;;;;;4956139;28;20501;-66
2023/08/08 11:42:44;;;;;;;7.87;6.47;;;16.70;1.00;;;;;;4957506;29;20455;-61
2023/08/08 11:45:12;;;;;;;9.60;6.20;;;16.70;1.00;;;;;;4956960;28;20464;-60
2023/08/08 11:47:40;;;;;;;8.33;6.03;;;16.70;1.00;;;;;;4957452;28;20533;-67
2023/08/08 11:50:09;;;;;;;10.20;5.77;;;16.80;1.00;;;;;;4973521;28;20483;-60
2023/08/08 11:52:42;;;;;;;9.57;5.30;;;17.30;1.00;;;;;;4975946;28;20588;-59
2023/08/08 11:55:11;;;;;;;6.87;5.30;;;18.30;1.00;;;;;;4962800;28;20485;-61
2023/08/08 11:57:39;;;;;;;7.37;5.00;;;19.00;99.90;;;;;;4963354;28;20572;-61
2023/08/08 12:00:08;;;;;;;6.73;4.73;;;19.10;99.90;;;;;;4961961;28;20919;-61
2023/08/08 12:02:36;;;;;;;9.80;5.60;;;19.00;99.90;;;;;;4958707;28;20521;-62
2023/08/08 12:05:06;;;;;;;8.07;6.03;;;18.50;99.90;;;;;;4958034;28;20478;-62
2023/08/08 12:07:34;;;;;;;7.83;5.40;;;17.90;99.90;;;;;;4958407;28;20482;-60
2023/08/08 12:10:02;;;;;;;7.87;5.00;;;17.50;1.00;;;;;;4968893;28;20466;-59
2023/08/08 12:12:34;;;;;;;6.70;4.83;;;17.20;1.00;;;;;;4982472;28;20525;-61
2023/08/08 12:15:05;;;;;;;8.47;5.73;;;16.90;1.00;;;;;;4981707;28;20536;-66
2023/08/08 12:17:32;;;;;;;12.47;7.23;;;16.50;1.00;;;;;;4981503;28;20588;-60
2023/08/08 12:20:00;;;;;;;9.00;6.60;;;16.50;1.00;;;;;;4974861;28;20577;-61
2023/08/08 12:22:28;;;;;;;8.80;6.90;;;16.50;1.00;;;;;;4962809;29;20745;-61
2023/08/08 12:24:55;;;;;;;12.83;7.23;;;16.50;1.00;;;;;;4961366;28;20475;-61
2023/08/08 12:27:22;;;;;;;8.33;6.80;;;16.50;1.00;;;;;;4961820;28;20813;-61
2023/08/08 12:29:51;;;;;;;7.80;4.60;;;16.50;1.00;;;;;;4962339;29;21025;-66
2023/08/08 12:32:23;;;;;;;6.03;5.00;;;16.40;1.00;;;;;;4981704;28;20489;-56
2023/08/08 12:34:50;;;;;;;9.87;5.77;;;16.20;1.00;;;;;;4982048;28;20470;-59
2023/08/08 12:37:18;;;;;;;7.93;5.10;;;16.10;1.00;;;;;;4981959;28;20535;-60
2023/08/08 12:39:45;;;;;;;15.43;5.13;;;15.90;1.00;;;;;;4981318;28;20871;-56
2023/08/08 12:42:12;;;;;;;10.93;5.73;;;15.80;1.00;;;;;;4981674;28;20462;-57
2023/08/08 12:44:39;;;;;;;7.03;5.10;;;15.80;1.00;;;;;;4963191;28;20982;-58
2023/08/08 12:47:08;;;;;;;6.80;5.53;;;15.90;1.00;;;;;;4962146;28;20935;-60
2023/08/08 12:49:37;;;;;;;6.40;4.67;;;16.00;1.00;;;;;;4960999;29;20758;-60